sensor_id;sensor_type;location;lat;lon;timestamp;P1;durP1;ratioP1;P2;durP2;ratioP2
13683;SDS011;6914;53.552;9.908;2022-07-29T00:01:20;2.00;;;1.90;;
13683;SDS011;6914;53.552;9.908;2022-07-29T00:03:47;5.07;;;1.93;;
13683;SDS011;6914;53.552;9.908;2022-07-29T00:06:15;3.70;;;2.33;;
13683;SDS011;6914;53.552;9.908;2022-07-29T00:08:44;4.80;;;2.00;;
13683;SDS011;6914;53.552;9.908;2022-07-29T00:11:11;9.90;;;2.40;;
13683;SDS011;6914;53.552;9.908;2022-07-29T00:13:39;6.63;;;2.20;;
13683;SDS011;6914;53.552;9.908;2022-07-29T00:16:05;5.13;;;2.17;;
13683;SDS011;6914;53.552;9.908;2022-07-29T00:18:33;5.93;;;2.17;;
13683;SDS011;6914;53.552;9.908;2022-07-29T00:21:00;2.73;;;2.00;;
13683;SDS011;6914;53.552;9.908;2022-07-29T00:23:27;5.93;;;2.40;;
13683;SDS011;6914;53.552;9.908;2022-07-29T00:25:55;3.27;;;2.20;;
13683;SDS011;6914;53.552;9.908;2022-07-29T00:28:23;2.70;;;2.50;;
13683;SDS011;6914;53.552;9.908;2022-07-29T00:30:49;2.10;;;1.83;;
13683;SDS011;6914;53.552;9.908;2022-07-29T00:33:17;4.70;;;2.43;;
13683;SDS011;6914;53.552;9.908;2022-07-29T00:35:44;9.60;;;1.53;;
13683;SDS011;6914;53.552;9.908;2022-07-29T00:38:10;2.43;;;2.23;;
13683;SDS011;6914;53.552;9.908;2022-07-29T00:40:37;4.10;;;1.60;;
13683;SDS011;6914;53.552;9.908;2022-07-29T00:43:06;5.17;;;2.57;;
13683;SDS011;6914;53.552;9.908;2022-07-29T00:45:33;2.40;;;2.20;;
13683;SDS011;6914;53.552;9.908;2022-07-29T00:48:00;7.57;;;2.17;;
13683;SDS011;6914;53.552;9.908;2022-07-29T00:50:29;9.30;;;2.80;;
13683;SDS011;6914;53.552;9.908;2022-07-29T00:52:57;7.40;;;3.10;;
13683;SDS011;6914;53.552;9.908;2022-07-29T00:55:24;6.30;;;2.80;;
13683;SDS011;6914;53.552;9.908;2022-07-29T00:57:51;5.90;;;1.83;;
13683;SDS011;6914;53.552;9.908;2022-07-29T01:00:22;3.97;;;2.10;;
13683;SDS011;6914;53.552;9.908;2022-07-29T01:02:50;4.10;;;2.23;;
13683;SDS011;6914;53.552;9.908;2022-07-29T01:05:19;2.57;;;2.20;;
13683;SDS011;6914;53.552;9.908;2022-07-29T01:07:48;3.40;;;2.30;;
13683;SDS011;6914;53.552;9.908;2022-07-29T01:10:17;6.80;;;2.70;;
13683;SDS011;6914;53.552;9.908;2022-07-29T01:12:46;8.53;;;2.33;;
13683;SDS011;6914;53.552;9.908;2022-07-29T01:15:15;2.20;;;2.10;;
13683;SDS011;6914;53.552;9.908;2022-07-29T01:17:46;3.77;;;2.47;;
13683;SDS011;6914;53.552;9.908;2022-07-29T01:20:20;2.47;;;2.27;;
13683;SDS011;6914;53.552;9.908;2022-07-29T01:22:56;7.70;;;2.90;;
13683;SDS011;6914;53.552;9.908;2022-07-29T01:26:03;4.00;;;2.47;;
13683;SDS011;6914;53.552;9.908;2022-07-29T01:28:43;5.73;;;2.23;;
13683;SDS011;6914;53.552;9.908;2022-07-29T01:31:22;7.13;;;2.93;;
13683;SDS011;6914;53.552;9.908;2022-07-29T01:33:55;4.83;;;2.63;;
13683;SDS011;6914;53.552;9.908;2022-07-29T01:36:34;4.10;;;2.20;;
13683;SDS011;6914;53.552;9.908;2022-07-29T01:39:05;5.70;;;2.97;;
13683;SDS011;6914;53.552;9.908;2022-07-29T01:41:35;6.60;;;2.80;;
13683;SDS011;6914;53.552;9.908;2022-07-29T01:44:10;4.07;;;2.70;;
13683;SDS011;6914;53.552;9.908;2022-07-29T01:46:42;7.33;;;2.60;;
13683;SDS011;6914;53.552;9.908;2022-07-29T01:49:16;5.27;;;2.80;;
13683;SDS011;6914;53.552;9.908;2022-07-29T01:51:49;4.23;;;2.50;;
13683;SDS011;6914;53.552;9.908;2022-07-29T01:54:19;4.73;;;2.50;;
13683;SDS011;6914;53.552;9.908;2022-07-29T01:56:51;5.47;;;2.30;;
13683;SDS011;6914;53.552;9.908;2022-07-29T01:59:22;14.03;;;3.87;;
13683;SDS011;6914;53.552;9.908;2022-07-29T02:01:53;8.13;;;3.17;;
13683;SDS011;6914;53.552;9.908;2022-07-29T02:04:21;8.40;;;2.60;;
13683;SDS011;6914;53.552;9.908;2022-07-29T02:06:50;2.53;;;2.33;;
13683;SDS011;6914;53.552;9.908;2022-07-29T02:09:20;6.53;;;3.50;;
13683;SDS011;6914;53.552;9.908;2022-07-29T02:11:51;3.70;;;2.73;;
13683;SDS011;6914;53.552;9.908;2022-07-29T02:14:21;8.40;;;2.87;;
13683;SDS011;6914;53.552;9.908;2022-07-29T02:16:52;5.63;;;2.70;;
13683;SDS011;6914;53.552;9.908;2022-07-29T02:19:22;8.80;;;2.27;;
13683;SDS011;6914;53.552;9.908;2022-07-29T02:21:53;7.40;;;3.00;;
13683;SDS011;6914;53.552;9.908;2022-07-29T02:24:22;5.20;;;2.53;;
13683;SDS011;6914;53.552;9.908;2022-07-29T02:26:51;2.70;;;2.23;;
13683;SDS011;6914;53.552;9.908;2022-07-29T02:29:21;6.73;;;3.30;;
13683;SDS011;6914;53.552;9.908;2022-07-29T02:31:53;7.13;;;2.80;;
13683;SDS011;6914;53.552;9.908;2022-07-29T02:34:22;4.30;;;2.80;;
13683;SDS011;6914;53.552;9.908;2022-07-29T02:36:50;6.13;;;3.00;;
13683;SDS011;6914;53.552;9.908;2022-07-29T02:39:18;3.93;;;2.70;;
13683;SDS011;6914;53.552;9.908;2022-07-29T02:41:47;3.83;;;2.90;;
13683;SDS011;6914;53.552;9.908;2022-07-29T02:44:18;5.00;;;2.93;;
13683;SDS011;6914;53.552;9.908;2022-07-29T02:46:49;7.13;;;3.23;;
13683;SDS011;6914;53.552;9.908;2022-07-29T02:49:23;3.03;;;2.73;;
13683;SDS011;6914;53.552;9.908;2022-07-29T02:52:01;2.17;;;2.07;;
13683;SDS011;6914;53.552;9.908;2022-07-29T02:54:33;4.90;;;2.87;;
13683;SDS011;6914;53.552;9.908;2022-07-29T02:57:06;7.00;;;2.50;;
13683;SDS011;6914;53.552;9.908;2022-07-29T02:59:40;5.40;;;3.13;;
13683;SDS011;6914;53.552;9.908;2022-07-29T03:02:13;3.87;;;3.10;;
13683;SDS011;6914;53.552;9.908;2022-07-29T03:04:42;3.07;;;2.87;;
13683;SDS011;6914;53.552;9.908;2022-07-29T03:07:10;6.57;;;2.60;;
13683;SDS011;6914;53.552;9.908;2022-07-29T03:09:40;6.90;;;2.70;;
13683;SDS011;6914;53.552;9.908;2022-07-29T03:12:08;2.90;;;2.40;;
13683;SDS011;6914;53.552;9.908;2022-07-29T03:14:35;14.43;;;2.93;;
13683;SDS011;6914;53.552;9.908;2022-07-29T03:17:04;6.53;;;2.70;;
13683;SDS011;6914;53.552;9.908;2022-07-29T03:19:33;2.70;;;2.50;;
13683;SDS011;6914;53.552;9.908;2022-07-29T03:22:01;8.20;;;2.80;;
13683;SDS011;6914;53.552;9.908;2022-07-29T03:24:30;5.80;;;3.07;;
13683;SDS011;6914;53.552;9.908;2022-07-29T03:26:58;9.47;;;3.40;;
13683;SDS011;6914;53.552;9.908;2022-07-29T03:29:26;5.33;;;2.83;;
13683;SDS011;6914;53.552;9.908;2022-07-29T03:31:54;6.97;;;3.20;;
13683;SDS011;6914;53.552;9.908;2022-07-29T03:34:22;5.60;;;2.87;;
13683;SDS011;6914;53.552;9.908;2022-07-29T03:36:50;4.90;;;2.87;;
13683;SDS011;6914;53.552;9.908;2022-07-29T03:39:18;3.77;;;2.50;;
13683;SDS011;6914;53.552;9.908;2022-07-29T03:41:49;4.70;;;2.63;;
13683;SDS011;6914;53.552;9.908;2022-07-29T03:44:21;4.83;;;3.00;;
13683;SDS011;6914;53.552;9.908;2022-07-29T03:46:50;4.47;;;2.80;;
13683;SDS011;6914;53.552;9.908;2022-07-29T03:49:19;9.80;;;3.10;;
13683;SDS011;6914;53.552;9.908;2022-07-29T03:51:47;3.37;;;2.97;;
13683;SDS011;6914;53.552;9.908;2022-07-29T03:54:16;5.57;;;3.43;;
13683;SDS011;6914;53.552;9.908;2022-07-29T03:56:45;7.30;;;3.60;;
13683;SDS011;6914;53.552;9.908;2022-07-29T03:59:15;10.87;;;3.70;;
13683;SDS011;6914;53.552;9.908;2022-07-29T04:01:46;5.93;;;2.73;;
13683;SDS011;6914;53.552;9.908;2022-07-29T04:04:13;3.50;;;3.30;;
13683;SDS011;6914;53.552;9.908;2022-07-29T04:06:41;4.10;;;3.33;;
13683;SDS011;6914;53.552;9.908;2022-07-29T04:09:10;2.83;;;2.63;;
13683;SDS011;6914;53.552;9.908;2022-07-29T04:11:40;5.40;;;3.03;;
13683;SDS011;6914;53.552;9.908;2022-07-29T04:14:08;8.03;;;2.97;;
13683;SDS011;6914;53.552;9.908;2022-07-29T04:16:35;3.97;;;3.47;;
13683;SDS011;6914;53.552;9.908;2022-07-29T04:19:02;4.97;;;3.60;;
13683;SDS011;6914;53.552;9.908;2022-07-29T04:21:29;4.13;;;3.00;;
13683;SDS011;6914;53.552;9.908;2022-07-29T04:23:58;7.93;;;2.60;;
13683;SDS011;6914;53.552;9.908;2022-07-29T04:26:25;4.80;;;3.00;;
13683;SDS011;6914;53.552;9.908;2022-07-29T04:28:54;7.70;;;2.57;;
13683;SDS011;6914;53.552;9.908;2022-07-29T04:31:21;5.10;;;2.30;;
13683;SDS011;6914;53.552;9.908;2022-07-29T04:33:48;3.30;;;2.87;;
13683;SDS011;6914;53.552;9.908;2022-07-29T04:36:15;10.00;;;3.00;;
13683;SDS011;6914;53.552;9.908;2022-07-29T04:38:42;3.70;;;2.93;;
13683;SDS011;6914;53.552;9.908;2022-07-29T04:41:09;4.77;;;2.80;;
13683;SDS011;6914;53.552;9.908;2022-07-29T04:43:36;3.27;;;2.97;;
13683;SDS011;6914;53.552;9.908;2022-07-29T04:46:06;9.70;;;2.97;;
13683;SDS011;6914;53.552;9.908;2022-07-29T04:48:33;5.00;;;3.07;;
13683;SDS011;6914;53.552;9.908;2022-07-29T04:51:00;9.90;;;3.33;;
13683;SDS011;6914;53.552;9.908;2022-07-29T04:53:27;9.23;;;3.00;;
13683;SDS011;6914;53.552;9.908;2022-07-29T04:55:54;4.07;;;3.27;;
13683;SDS011;6914;53.552;9.908;2022-07-29T04:58:21;8.70;;;3.73;;
13683;SDS011;6914;53.552;9.908;2022-07-29T05:00:49;7.30;;;3.30;;
13683;SDS011;6914;53.552;9.908;2022-07-29T05:03:17;2.73;;;2.53;;
13683;SDS011;6914;53.552;9.908;2022-07-29T05:05:45;8.13;;;2.90;;
13683;SDS011;6914;53.552;9.908;2022-07-29T05:08:12;4.70;;;3.10;;
13683;SDS011;6914;53.552;9.908;2022-07-29T05:10:39;4.97;;;3.20;;
13683;SDS011;6914;53.552;9.908;2022-07-29T05:13:06;4.07;;;2.73;;
13683;SDS011;6914;53.552;9.908;2022-07-29T05:15:34;3.00;;;2.70;;
13683;SDS011;6914;53.552;9.908;2022-07-29T05:18:01;4.30;;;3.03;;
13683;SDS011;6914;53.552;9.908;2022-07-29T05:20:30;6.20;;;2.73;;
13683;SDS011;6914;53.552;9.908;2022-07-29T05:22:59;4.33;;;2.90;;
13683;SDS011;6914;53.552;9.908;2022-07-29T05:25:28;5.83;;;3.07;;
13683;SDS011;6914;53.552;9.908;2022-07-29T05:27:55;3.40;;;3.10;;
13683;SDS011;6914;53.552;9.908;2022-07-29T05:30:23;5.10;;;2.43;;
13683;SDS011;6914;53.552;9.908;2022-07-29T05:32:50;7.90;;;2.03;;
13683;SDS011;6914;53.552;9.908;2022-07-29T05:35:17;18.83;;;3.43;;
13683;SDS011;6914;53.552;9.908;2022-07-29T05:37:45;4.43;;;2.27;;
13683;SDS011;6914;53.552;9.908;2022-07-29T05:40:12;16.73;;;3.20;;
13683;SDS011;6914;53.552;9.908;2022-07-29T05:42:40;2.97;;;2.77;;
13683;SDS011;6914;53.552;9.908;2022-07-29T05:45:07;8.83;;;2.83;;
13683;SDS011;6914;53.552;9.908;2022-07-29T05:47:35;5.43;;;3.80;;
13683;SDS011;6914;53.552;9.908;2022-07-29T05:50:02;16.70;;;3.20;;
13683;SDS011;6914;53.552;9.908;2022-07-29T05:52:30;2.70;;;2.50;;
13683;SDS011;6914;53.552;9.908;2022-07-29T05:54:59;21.80;;;3.77;;
13683;SDS011;6914;53.552;9.908;2022-07-29T05:57:29;6.57;;;4.00;;
13683;SDS011;6914;53.552;9.908;2022-07-29T05:59:56;3.83;;;2.73;;
13683;SDS011;6914;53.552;9.908;2022-07-29T06:02:23;8.40;;;3.40;;
13683;SDS011;6914;53.552;9.908;2022-07-29T06:04:51;4.53;;;3.13;;
13683;SDS011;6914;53.552;9.908;2022-07-29T06:07:18;11.10;;;3.10;;
13683;SDS011;6914;53.552;9.908;2022-07-29T06:09:45;11.87;;;3.30;;
13683;SDS011;6914;53.552;9.908;2022-07-29T06:12:14;12.60;;;3.07;;
13683;SDS011;6914;53.552;9.908;2022-07-29T06:14:41;5.97;;;2.70;;
13683;SDS011;6914;53.552;9.908;2022-07-29T06:17:08;3.57;;;3.27;;
13683;SDS011;6914;53.552;9.908;2022-07-29T06:19:36;9.10;;;2.83;;
13683;SDS011;6914;53.552;9.908;2022-07-29T06:22:04;6.03;;;2.50;;
13683;SDS011;6914;53.552;9.908;2022-07-29T06:24:31;21.27;;;2.90;;
13683;SDS011;6914;53.552;9.908;2022-07-29T06:26:58;3.53;;;2.80;;
13683;SDS011;6914;53.552;9.908;2022-07-29T06:29:26;4.70;;;2.90;;
13683;SDS011;6914;53.552;9.908;2022-07-29T06:31:53;5.17;;;2.60;;
13683;SDS011;6914;53.552;9.908;2022-07-29T06:34:21;5.70;;;2.77;;
13683;SDS011;6914;53.552;9.908;2022-07-29T06:36:49;3.33;;;2.90;;
13683;SDS011;6914;53.552;9.908;2022-07-29T06:39:17;13.13;;;3.10;;
13683;SDS011;6914;53.552;9.908;2022-07-29T06:41:46;8.10;;;3.07;;
13683;SDS011;6914;53.552;9.908;2022-07-29T06:44:14;11.97;;;3.33;;
13683;SDS011;6914;53.552;9.908;2022-07-29T06:46:42;7.10;;;2.90;;
13683;SDS011;6914;53.552;9.908;2022-07-29T06:49:12;3.07;;;2.83;;
13683;SDS011;6914;53.552;9.908;2022-07-29T06:51:39;7.27;;;2.67;;
13683;SDS011;6914;53.552;9.908;2022-07-29T06:54:06;2.83;;;2.63;;
13683;SDS011;6914;53.552;9.908;2022-07-29T06:56:34;5.93;;;3.70;;
13683;SDS011;6914;53.552;9.908;2022-07-29T06:59:02;8.60;;;2.47;;
13683;SDS011;6914;53.552;9.908;2022-07-29T07:01:29;7.83;;;3.10;;
13683;SDS011;6914;53.552;9.908;2022-07-29T07:03:58;6.47;;;2.90;;
13683;SDS011;6914;53.552;9.908;2022-07-29T07:06:26;6.70;;;2.93;;
13683;SDS011;6914;53.552;9.908;2022-07-29T07:08:53;4.43;;;2.70;;
13683;SDS011;6914;53.552;9.908;2022-07-29T07:11:20;3.07;;;2.80;;
13683;SDS011;6914;53.552;9.908;2022-07-29T07:13:47;12.17;;;3.60;;
13683;SDS011;6914;53.552;9.908;2022-07-29T07:16:14;4.90;;;2.87;;
13683;SDS011;6914;53.552;9.908;2022-07-29T07:18:42;5.10;;;3.10;;
13683;SDS011;6914;53.552;9.908;2022-07-29T07:21:11;4.80;;;3.07;;
13683;SDS011;6914;53.552;9.908;2022-07-29T07:23:39;11.33;;;3.23;;
13683;SDS011;6914;53.552;9.908;2022-07-29T07:26:06;8.40;;;2.97;;
13683;SDS011;6914;53.552;9.908;2022-07-29T07:28:33;12.83;;;3.17;;
13683;SDS011;6914;53.552;9.908;2022-07-29T07:31:00;5.53;;;3.73;;
13683;SDS011;6914;53.552;9.908;2022-07-29T07:33:27;7.47;;;3.20;;
13683;SDS011;6914;53.552;9.908;2022-07-29T07:35:54;4.00;;;3.03;;
13683;SDS011;6914;53.552;9.908;2022-07-29T07:38:22;8.83;;;3.43;;
13683;SDS011;6914;53.552;9.908;2022-07-29T07:40:49;6.37;;;3.00;;
13683;SDS011;6914;53.552;9.908;2022-07-29T07:43:16;2.97;;;2.73;;
13683;SDS011;6914;53.552;9.908;2022-07-29T07:45:44;7.73;;;3.23;;
13683;SDS011;6914;53.552;9.908;2022-07-29T07:48:11;3.53;;;2.83;;
13683;SDS011;6914;53.552;9.908;2022-07-29T07:50:38;2.63;;;2.43;;
13683;SDS011;6914;53.552;9.908;2022-07-29T07:53:05;5.17;;;2.87;;
13683;SDS011;6914;53.552;9.908;2022-07-29T07:55:38;2.73;;;2.53;;
13683;SDS011;6914;53.552;9.908;2022-07-29T07:58:06;4.30;;;2.83;;
13683;SDS011;6914;53.552;9.908;2022-07-29T08:00:33;4.23;;;2.57;;
13683;SDS011;6914;53.552;9.908;2022-07-29T08:03:00;2.73;;;2.53;;
13683;SDS011;6914;53.552;9.908;2022-07-29T08:05:28;6.37;;;2.53;;
13683;SDS011;6914;53.552;9.908;2022-07-29T08:07:55;5.80;;;2.70;;
13683;SDS011;6914;53.552;9.908;2022-07-29T08:10:22;8.93;;;3.40;;
13683;SDS011;6914;53.552;9.908;2022-07-29T08:13:08;5.63;;;3.10;;
13683;SDS011;6914;53.552;9.908;2022-07-29T08:15:38;5.40;;;2.70;;
13683;SDS011;6914;53.552;9.908;2022-07-29T08:18:06;6.80;;;3.23;;
13683;SDS011;6914;53.552;9.908;2022-07-29T08:20:33;4.47;;;2.50;;
13683;SDS011;6914;53.552;9.908;2022-07-29T08:23:01;6.77;;;2.77;;
13683;SDS011;6914;53.552;9.908;2022-07-29T08:25:29;5.00;;;2.73;;
13683;SDS011;6914;53.552;9.908;2022-07-29T08:27:57;3.23;;;2.37;;
13683;SDS011;6914;53.552;9.908;2022-07-29T08:30:26;7.60;;;3.03;;
13683;SDS011;6914;53.552;9.908;2022-07-29T08:32:54;2.50;;;2.30;;
13683;SDS011;6914;53.552;9.908;2022-07-29T08:35:22;5.50;;;2.80;;
13683;SDS011;6914;53.552;9.908;2022-07-29T08:37:50;4.90;;;2.60;;
13683;SDS011;6914;53.552;9.908;2022-07-29T08:40:17;14.40;;;3.50;;
13683;SDS011;6914;53.552;9.908;2022-07-29T08:42:46;12.93;;;3.10;;
13683;SDS011;6914;53.552;9.908;2022-07-29T08:48:36;10.37;;;2.87;;
13683;SDS011;6914;53.552;9.908;2022-07-29T08:51:03;11.17;;;2.90;;
13683;SDS011;6914;53.552;9.908;2022-07-29T08:53:33;8.30;;;2.67;;
13683;SDS011;6914;53.552;9.908;2022-07-29T08:56:03;5.83;;;2.43;;
13683;SDS011;6914;53.552;9.908;2022-07-29T08:58:31;5.90;;;2.83;;
13683;SDS011;6914;53.552;9.908;2022-07-29T09:00:59;21.20;;;2.57;;
13683;SDS011;6914;53.552;9.908;2022-07-29T09:16:24;4.80;;;2.53;;
13683;SDS011;6914;53.552;9.908;2022-07-29T09:18:51;15.93;;;2.93;;
13683;SDS011;6914;53.552;9.908;2022-07-29T09:21:18;5.37;;;2.80;;
13683;SDS011;6914;53.552;9.908;2022-07-29T09:24:04;4.83;;;2.63;;
13683;SDS011;6914;53.552;9.908;2022-07-29T09:56:53;2.90;;;2.13;;
13683;SDS011;6914;53.552;9.908;2022-07-29T11:06:15;9.13;;;1.70;;
13683;SDS011;6914;53.552;9.908;2022-07-29T11:08:42;1.57;;;1.03;;
13683;SDS011;6914;53.552;9.908;2022-07-29T11:14:09;1.63;;;1.20;;
13683;SDS011;6914;53.552;9.908;2022-07-29T11:23:03;2.00;;;1.40;;
13683;SDS011;6914;53.552;9.908;2022-07-29T11:25:44;8.27;;;1.80;;
13683;SDS011;6914;53.552;9.908;2022-07-29T11:28:13;2.00;;;1.80;;
13683;SDS011;6914;53.552;9.908;2022-07-29T11:30:48;13.93;;;1.60;;
13683;SDS011;6914;53.552;9.908;2022-07-29T11:33:29;1.50;;;1.40;;
13683;SDS011;6914;53.552;9.908;2022-07-29T11:36:09;4.60;;;1.73;;
13683;SDS011;6914;53.552;9.908;2022-07-29T11:38:38;3.83;;;1.43;;
13683;SDS011;6914;53.552;9.908;2022-07-29T11:41:19;2.90;;;1.37;;
13683;SDS011;6914;53.552;9.908;2022-07-29T11:43:47;5.43;;;1.27;;
13683;SDS011;6914;53.552;9.908;2022-07-29T11:46:16;3.60;;;1.60;;
13683;SDS011;6914;53.552;9.908;2022-07-29T11:49:06;6.33;;;1.90;;
13683;SDS011;6914;53.552;9.908;2022-07-29T11:51:34;5.73;;;1.50;;
13683;SDS011;6914;53.552;9.908;2022-07-29T11:54:03;3.00;;;1.80;;
13683;SDS011;6914;53.552;9.908;2022-07-29T11:56:31;12.80;;;1.57;;
13683;SDS011;6914;53.552;9.908;2022-07-29T11:59:05;10.00;;;2.10;;
13683;SDS011;6914;53.552;9.908;2022-07-29T12:01:34;2.30;;;1.47;;
13683;SDS011;6914;53.552;9.908;2022-07-29T12:04:04;10.80;;;1.67;;
13683;SDS011;6914;53.552;9.908;2022-07-29T12:06:31;1.43;;;1.30;;
13683;SDS011;6914;53.552;9.908;2022-07-29T12:08:58;4.17;;;1.33;;
13683;SDS011;6914;53.552;9.908;2022-07-29T12:11:27;4.57;;;1.50;;
13683;SDS011;6914;53.552;9.908;2022-07-29T12:13:54;8.20;;;1.10;;
13683;SDS011;6914;53.552;9.908;2022-07-29T12:16:21;5.53;;;1.43;;
13683;SDS011;6914;53.552;9.908;2022-07-29T12:24:42;4.03;;;1.47;;
13683;SDS011;6914;53.552;9.908;2022-07-29T12:27:11;4.97;;;1.33;;
13683;SDS011;6914;53.552;9.908;2022-07-29T12:29:54;2.30;;;1.20;;
13683;SDS011;6914;53.552;9.908;2022-07-29T12:32:24;8.33;;;2.30;;
13683;SDS011;6914;53.552;9.908;2022-07-29T12:34:59;1.37;;;1.00;;
13683;SDS011;6914;53.552;9.908;2022-07-29T12:37:28;1.80;;;1.70;;
13683;SDS011;6914;53.552;9.908;2022-07-29T12:39:55;3.87;;;1.10;;
13683;SDS011;6914;53.552;9.908;2022-07-29T12:42:29;2.53;;;1.40;;
13683;SDS011;6914;53.552;9.908;2022-07-29T12:44:56;2.40;;;1.53;;
13683;SDS011;6914;53.552;9.908;2022-07-29T12:47:29;3.63;;;1.47;;
13683;SDS011;6914;53.552;9.908;2022-07-29T12:50:07;2.73;;;1.90;;
13683;SDS011;6914;53.552;9.908;2022-07-29T12:52:37;10.33;;;2.00;;
13683;SDS011;6914;53.552;9.908;2022-07-29T12:55:04;2.80;;;1.40;;
13683;SDS011;6914;53.552;9.908;2022-07-29T12:57:35;1.60;;;1.50;;
13683;SDS011;6914;53.552;9.908;2022-07-29T13:00:16;6.40;;;1.47;;
13683;SDS011;6914;53.552;9.908;2022-07-29T13:02:54;12.37;;;2.10;;
13683;SDS011;6914;53.552;9.908;2022-07-29T13:05:22;3.93;;;1.77;;
13683;SDS011;6914;53.552;9.908;2022-07-29T13:07:50;3.90;;;1.53;;
13683;SDS011;6914;53.552;9.908;2022-07-29T13:10:17;3.67;;;1.77;;
13683;SDS011;6914;53.552;9.908;2022-07-29T13:13:06;3.57;;;1.53;;
13683;SDS011;6914;53.552;9.908;2022-07-29T13:15:37;5.47;;;1.73;;
13683;SDS011;6914;53.552;9.908;2022-07-29T13:18:31;3.30;;;1.43;;
13683;SDS011;6914;53.552;9.908;2022-07-29T13:21:10;3.40;;;1.30;;
13683;SDS011;6914;53.552;9.908;2022-07-29T13:23:41;7.00;;;1.40;;
13683;SDS011;6914;53.552;9.908;2022-07-29T13:26:12;5.17;;;1.60;;
13683;SDS011;6914;53.552;9.908;2022-07-29T13:28:42;7.70;;;2.00;;
13683;SDS011;6914;53.552;9.908;2022-07-29T13:31:09;5.37;;;1.70;;
13683;SDS011;6914;53.552;9.908;2022-07-29T13:33:43;3.40;;;1.73;;
13683;SDS011;6914;53.552;9.908;2022-07-29T13:36:14;2.60;;;2.10;;
13683;SDS011;6914;53.552;9.908;2022-07-29T13:38:41;8.33;;;1.83;;
13683;SDS011;6914;53.552;9.908;2022-07-29T13:41:10;3.23;;;1.50;;
13683;SDS011;6914;53.552;9.908;2022-07-29T13:43:37;2.97;;;1.90;;
13683;SDS011;6914;53.552;9.908;2022-07-29T13:46:06;6.50;;;1.37;;
13683;SDS011;6914;53.552;9.908;2022-07-29T13:48:33;18.80;;;2.10;;
13683;SDS011;6914;53.552;9.908;2022-07-29T13:51:00;2.47;;;1.90;;
13683;SDS011;6914;53.552;9.908;2022-07-29T13:53:28;4.63;;;1.50;;
13683;SDS011;6914;53.552;9.908;2022-07-29T13:55:55;26.63;;;2.50;;
13683;SDS011;6914;53.552;9.908;2022-07-29T13:58:22;3.20;;;1.70;;
13683;SDS011;6914;53.552;9.908;2022-07-29T14:00:50;2.23;;;2.10;;
13683;SDS011;6914;53.552;9.908;2022-07-29T14:03:21;13.60;;;2.10;;
13683;SDS011;6914;53.552;9.908;2022-07-29T14:05:52;9.50;;;2.70;;
13683;SDS011;6914;53.552;9.908;2022-07-29T14:08:21;4.07;;;2.00;;
13683;SDS011;6914;53.552;9.908;2022-07-29T14:10:54;3.03;;;1.60;;
13683;SDS011;6914;53.552;9.908;2022-07-29T14:13:21;4.73;;;2.03;;
13683;SDS011;6914;53.552;9.908;2022-07-29T14:15:48;1.80;;;1.70;;
13683;SDS011;6914;53.552;9.908;2022-07-29T14:18:15;4.50;;;2.47;;
13683;SDS011;6914;53.552;9.908;2022-07-29T14:20:44;10.30;;;2.33;;
13683;SDS011;6914;53.552;9.908;2022-07-29T14:23:11;2.47;;;2.23;;
13683;SDS011;6914;53.552;9.908;2022-07-29T14:25:38;7.60;;;3.43;;
13683;SDS011;6914;53.552;9.908;2022-07-29T14:28:06;5.80;;;2.00;;
13683;SDS011;6914;53.552;9.908;2022-07-29T14:30:34;16.53;;;1.90;;
13683;SDS011;6914;53.552;9.908;2022-07-29T14:33:20;6.60;;;2.23;;
13683;SDS011;6914;53.552;9.908;2022-07-29T14:35:48;7.97;;;2.40;;
13683;SDS011;6914;53.552;9.908;2022-07-29T14:38:16;7.97;;;2.27;;
13683;SDS011;6914;53.552;9.908;2022-07-29T14:40:43;2.50;;;2.23;;
13683;SDS011;6914;53.552;9.908;2022-07-29T14:43:11;3.73;;;2.30;;
13683;SDS011;6914;53.552;9.908;2022-07-29T14:45:39;10.97;;;4.30;;
13683;SDS011;6914;53.552;9.908;2022-07-29T14:48:07;2.70;;;2.50;;
13683;SDS011;6914;53.552;9.908;2022-07-29T14:50:36;4.20;;;2.37;;
13683;SDS011;6914;53.552;9.908;2022-07-29T14:53:05;7.00;;;2.50;;
13683;SDS011;6914;53.552;9.908;2022-07-29T14:55:32;4.57;;;2.40;;
13683;SDS011;6914;53.552;9.908;2022-07-29T14:58:00;4.43;;;2.40;;
13683;SDS011;6914;53.552;9.908;2022-07-29T15:00:27;1.87;;;1.77;;
13683;SDS011;6914;53.552;9.908;2022-07-29T15:02:57;8.17;;;1.90;;
13683;SDS011;6914;53.552;9.908;2022-07-29T15:05:24;4.00;;;2.63;;
13683;SDS011;6914;53.552;9.908;2022-07-29T15:07:52;10.67;;;2.03;;
13683;SDS011;6914;53.552;9.908;2022-07-29T15:10:21;11.23;;;2.80;;
13683;SDS011;6914;53.552;9.908;2022-07-29T15:12:48;2.63;;;2.10;;
13683;SDS011;6914;53.552;9.908;2022-07-29T15:15:15;8.70;;;3.30;;
13683;SDS011;6914;53.552;9.908;2022-07-29T15:17:43;7.50;;;2.60;;
13683;SDS011;6914;53.552;9.908;2022-07-29T15:20:13;7.73;;;2.10;;
13683;SDS011;6914;53.552;9.908;2022-07-29T15:22:40;5.50;;;2.20;;
13683;SDS011;6914;53.552;9.908;2022-07-29T15:25:08;7.10;;;2.70;;
13683;SDS011;6914;53.552;9.908;2022-07-29T15:27:37;2.40;;;1.87;;
13683;SDS011;6914;53.552;9.908;2022-07-29T15:30:05;5.53;;;2.33;;
13683;SDS011;6914;53.552;9.908;2022-07-29T15:32:33;3.83;;;2.07;;
13683;SDS011;6914;53.552;9.908;2022-07-29T15:35:00;6.10;;;2.13;;
13683;SDS011;6914;53.552;9.908;2022-07-29T15:37:28;15.77;;;2.87;;
13683;SDS011;6914;53.552;9.908;2022-07-29T15:39:55;4.47;;;1.70;;
13683;SDS011;6914;53.552;9.908;2022-07-29T15:42:22;3.90;;;2.20;;
13683;SDS011;6914;53.552;9.908;2022-07-29T15:44:50;3.37;;;2.20;;
13683;SDS011;6914;53.552;9.908;2022-07-29T15:47:18;6.60;;;1.80;;
13683;SDS011;6914;53.552;9.908;2022-07-29T15:49:45;3.90;;;2.40;;
13683;SDS011;6914;53.552;9.908;2022-07-29T15:52:12;6.20;;;1.90;;
13683;SDS011;6914;53.552;9.908;2022-07-29T15:54:39;7.10;;;2.57;;
13683;SDS011;6914;53.552;9.908;2022-07-29T15:57:06;6.50;;;3.37;;
13683;SDS011;6914;53.552;9.908;2022-07-29T15:59:34;2.43;;;2.23;;
13683;SDS011;6914;53.552;9.908;2022-07-29T16:02:02;3.73;;;2.37;;
13683;SDS011;6914;53.552;9.908;2022-07-29T16:04:30;14.20;;;3.17;;
13683;SDS011;6914;53.552;9.908;2022-07-29T16:06:57;6.83;;;2.30;;
13683;SDS011;6914;53.552;9.908;2022-07-29T16:09:24;7.03;;;2.40;;
13683;SDS011;6914;53.552;9.908;2022-07-29T16:11:52;4.23;;;2.10;;
13683;SDS011;6914;53.552;9.908;2022-07-29T16:14:20;5.57;;;2.57;;
13683;SDS011;6914;53.552;9.908;2022-07-29T16:16:48;10.00;;;2.47;;
13683;SDS011;6914;53.552;9.908;2022-07-29T16:19:17;9.80;;;2.50;;
13683;SDS011;6914;53.552;9.908;2022-07-29T16:21:44;6.73;;;2.33;;
13683;SDS011;6914;53.552;9.908;2022-07-29T16:24:11;8.20;;;2.37;;
13683;SDS011;6914;53.552;9.908;2022-07-29T16:26:39;5.37;;;2.20;;
13683;SDS011;6914;53.552;9.908;2022-07-29T16:29:07;3.40;;;2.33;;
13683;SDS011;6914;53.552;9.908;2022-07-29T16:31:34;8.20;;;2.60;;
13683;SDS011;6914;53.552;9.908;2022-07-29T16:34:02;6.87;;;2.20;;
13683;SDS011;6914;53.552;9.908;2022-07-29T16:36:30;3.23;;;1.93;;
13683;SDS011;6914;53.552;9.908;2022-07-29T16:38:57;6.50;;;2.67;;
13683;SDS011;6914;53.552;9.908;2022-07-29T16:41:25;11.70;;;2.30;;
13683;SDS011;6914;53.552;9.908;2022-07-29T16:43:53;4.47;;;2.07;;
13683;SDS011;6914;53.552;9.908;2022-07-29T16:46:21;5.60;;;1.70;;
13683;SDS011;6914;53.552;9.908;2022-07-29T16:48:48;10.63;;;2.00;;
13683;SDS011;6914;53.552;9.908;2022-07-29T16:51:15;2.73;;;2.40;;
13683;SDS011;6914;53.552;9.908;2022-07-29T16:53:44;16.67;;;2.50;;
13683;SDS011;6914;53.552;9.908;2022-07-29T16:56:11;3.40;;;2.00;;
13683;SDS011;6914;53.552;9.908;2022-07-29T16:58:38;2.90;;;2.10;;
13683;SDS011;6914;53.552;9.908;2022-07-29T17:01:06;5.67;;;2.30;;
13683;SDS011;6914;53.552;9.908;2022-07-29T17:03:33;3.00;;;2.17;;
13683;SDS011;6914;53.552;9.908;2022-07-29T17:06:20;6.47;;;3.10;;
13683;SDS011;6914;53.552;9.908;2022-07-29T17:08:49;6.23;;;2.10;;
13683;SDS011;6914;53.552;9.908;2022-07-29T17:11:17;5.33;;;2.90;;
13683;SDS011;6914;53.552;9.908;2022-07-29T17:13:44;4.30;;;1.90;;
13683;SDS011;6914;53.552;9.908;2022-07-29T17:16:11;4.37;;;3.00;;
13683;SDS011;6914;53.552;9.908;2022-07-29T17:18:38;2.60;;;2.40;;
13683;SDS011;6914;53.552;9.908;2022-07-29T17:21:06;2.03;;;1.83;;